sensor_id;sensor_type;location;lat;lon;timestamp;temperature;humidity
41262;DHT22;29629;52.532;13.352;2023-09-18T00:02:08;21.00;99.90
41262;DHT22;29629;52.532;13.352;2023-09-18T00:04:35;21.00;99.90
41262;DHT22;29629;52.532;13.352;2023-09-18T00:07:02;21.00;99.90
41262;DHT22;29629;52.532;13.352;2023-09-18T00:09:29;20.90;99.90
41262;DHT22;29629;52.532;13.352;2023-09-18T00:11:56;20.90;99.90
41262;DHT22;29629;52.532;13.352;2023-09-18T00:14:24;20.90;99.90
41262;DHT22;29629;52.532;13.352;2023-09-18T00:16:52;20.90;99.90
41262;DHT22;29629;52.532;13.352;2023-09-18T00:19:19;20.90;99.90
41262;DHT22;29629;52.532;13.352;2023-09-18T00:21:46;20.80;99.90
41262;DHT22;29629;52.532;13.352;2023-09-18T00:24:13;20.80;99.90
41262;DHT22;29629;52.532;13.352;2023-09-18T00:26:40;20.80;99.90
41262;DHT22;29629;52.532;13.352;2023-09-18T00:29:06;20.80;99.90
41262;DHT22;29629;52.532;13.352;2023-09-18T00:31:35;20.80;99.90
41262;DHT22;29629;52.532;13.352;2023-09-18T00:34:02;20.70;99.90
41262;DHT22;29629;52.532;13.352;2023-09-18T00:36:28;20.70;99.90
41262;DHT22;29629;52.532;13.352;2023-09-18T00:38:55;20.70;99.90
41262;DHT22;29629;52.532;13.352;2023-09-18T00:41:22;20.60;99.90
41262;DHT22;29629;52.532;13.352;2023-09-18T00:43:49;20.60;99.90
41262;DHT22;29629;52.532;13.352;2023-09-18T00:46:16;20.60;99.90
41262;DHT22;29629;52.532;13.352;2023-09-18T00:48:44;20.60;99.90
41262;DHT22;29629;52.532;13.352;2023-09-18T00:51:13;20.50;99.90
41262;DHT22;29629;52.532;13.352;2023-09-18T00:53:44;20.50;99.90
41262;DHT22;29629;52.532;13.352;2023-09-18T00:56:14;20.50;99.90
41262;DHT22;29629;52.532;13.352;2023-09-18T00:58:41;20.50;99.90
41262;DHT22;29629;52.532;13.352;2023-09-18T01:01:09;20.50;99.90
41262;DHT22;29629;52.532;13.352;2023-09-18T01:03:36;20.40;99.90
41262;DHT22;29629;52.532;13.352;2023-09-18T01:06:05;20.40;99.90
41262;DHT22;29629;52.532;13.352;2023-09-18T01:08:31;20.40;99.90
41262;DHT22;29629;52.532;13.352;2023-09-18T01:11:04;20.40;99.90
41262;DHT22;29629;52.532;13.352;2023-09-18T01:13:38;20.40;99.90
41262;DHT22;29629;52.532;13.352;2023-09-18T01:16:13;20.40;99.90
41262;DHT22;29629;52.532;13.352;2023-09-18T01:18:48;20.30;99.90
41262;DHT22;29629;52.532;13.352;2023-09-18T01:21:18;20.30;99.90
41262;DHT22;29629;52.532;13.352;2023-09-18T01:23:47;20.30;99.90
41262;DHT22;29629;52.532;13.352;2023-09-18T01:26:14;20.30;99.90
41262;DHT22;29629;52.532;13.352;2023-09-18T01:28:41;20.30;99.90
41262;DHT22;29629;52.532;13.352;2023-09-18T01:31:08;20.20;99.90
41262;DHT22;29629;52.532;13.352;2023-09-18T01:33:35;20.20;99.90
41262;DHT22;29629;52.532;13.352;2023-09-18T01:36:05;20.20;99.90
41262;DHT22;29629;52.532;13.352;2023-09-18T01:38:33;20.20;99.90
41262;DHT22;29629;52.532;13.352;2023-09-18T01:41:01;20.10;99.90
41262;DHT22;29629;52.532;13.352;2023-09-18T01:43:28;20.10;99.90
41262;DHT22;29629;52.532;13.352;2023-09-18T01:45:56;20.00;99.90
41262;DHT22;29629;52.532;13.352;2023-09-18T01:48:23;20.00;99.90
41262;DHT22;29629;52.532;13.352;2023-09-18T01:50:49;20.00;99.90
41262;DHT22;29629;52.532;13.352;2023-09-18T01:53:16;20.00;99.90
41262;DHT22;29629;52.532;13.352;2023-09-18T01:55:43;20.00;99.90
41262;DHT22;29629;52.532;13.352;2023-09-18T01:58:12;20.00;99.90
41262;DHT22;29629;52.532;13.352;2023-09-18T02:00:40;20.00;99.90
41262;DHT22;29629;52.532;13.352;2023-09-18T02:03:06;19.90;99.90
41262;DHT22;29629;52.532;13.352;2023-09-18T02:05:33;20.00;99.90
41262;DHT22;29629;52.532;13.352;2023-09-18T02:08:02;19.90;99.90
41262;DHT22;29629;52.532;13.352;2023-09-18T02:10:29;19.90;99.90
41262;DHT22;29629;52.532;13.352;2023-09-18T02:12:56;19.90;99.90
41262;DHT22;29629;52.532;13.352;2023-09-18T02:15:24;19.90;99.90
41262;DHT22;29629;52.532;13.352;2023-09-18T02:17:52;19.80;99.90
41262;DHT22;29629;52.532;13.352;2023-09-18T02:20:19;19.80;99.90
41262;DHT22;29629;52.532;13.352;2023-09-18T02:22:46;19.80;99.90
41262;DHT22;29629;52.532;13.352;2023-09-18T02:25:14;19.70;99.90
41262;DHT22;29629;52.532;13.352;2023-09-18T02:27:41;19.70;99.90
41262;DHT22;29629;52.532;13.352;2023-09-18T02:30:08;19.70;99.90
41262;DHT22;29629;52.532;13.352;2023-09-18T02:32:37;19.70;99.90
41262;DHT22;29629;52.532;13.352;2023-09-18T02:35:07;19.70;99.90
41262;DHT22;29629;52.532;13.352;2023-09-18T02:37:35;19.70;99.90
41262;DHT22;29629;52.532;13.352;2023-09-18T02:40:02;19.70;99.90
41262;DHT22;29629;52.532;13.352;2023-09-18T02:42:30;19.70;99.90
41262;DHT22;29629;52.532;13.352;2023-09-18T02:44:57;19.70;99.90
41262;DHT22;29629;52.532;13.352;2023-09-18T02:47:24;19.70;99.90
41262;DHT22;29629;52.532;13.352;2023-09-18T02:49:52;19.60;99.90
41262;DHT22;29629;52.532;13.352;2023-09-18T02:52:19;19.60;99.90
41262;DHT22;29629;52.532;13.352;2023-09-18T02:54:46;19.60;99.90
41262;DHT22;29629;52.532;13.352;2023-09-18T02:57:13;19.60;99.90
41262;DHT22;29629;52.532;13.352;2023-09-18T02:59:41;19.60;99.90
41262;DHT22;29629;52.532;13.352;2023-09-18T03:02:08;19.60;99.90
41262;DHT22;29629;52.532;13.352;2023-09-18T03:04:34;19.60;99.90
41262;DHT22;29629;52.532;13.352;2023-09-18T03:07:03;19.50;99.90
41262;DHT22;29629;52.532;13.352;2023-09-18T03:09:30;19.50;99.90
41262;DHT22;29629;52.532;13.352;2023-09-18T03:11:57;19.40;99.90
41262;DHT22;29629;52.532;13.352;2023-09-18T03:14:24;19.50;99.90
41262;DHT22;29629;52.532;13.352;2023-09-18T03:16:51;19.40;99.90
41262;DHT22;29629;52.532;13.352;2023-09-18T03:19:18;19.40;99.90
41262;DHT22;29629;52.532;13.352;2023-09-18T03:21:44;19.40;99.90
41262;DHT22;29629;52.532;13.352;2023-09-18T03:24:13;19.40;99.90
41262;DHT22;29629;52.532;13.352;2023-09-18T03:26:40;19.40;99.90
41262;DHT22;29629;52.532;13.352;2023-09-18T03:29:07;19.40;99.90
41262;DHT22;29629;52.532;13.352;2023-09-18T03:31:34;19.40;99.90
41262;DHT22;29629;52.532;13.352;2023-09-18T03:34:01;19.40;99.90
41262;DHT22;29629;52.532;13.352;2023-09-18T03:36:28;19.40;99.90
41262;DHT22;29629;52.532;13.352;2023-09-18T03:38:54;19.40;99.90
41262;DHT22;29629;52.532;13.352;2023-09-18T03:41:23;19.40;99.90
41262;DHT22;29629;52.532;13.352;2023-09-18T03:43:50;19.30;99.90
41262;DHT22;29629;52.532;13.352;2023-09-18T03:46:17;19.30;99.90
41262;DHT22;29629;52.532;13.352;2023-09-18T03:48:44;19.30;99.90
41262;DHT22;29629;52.532;13.352;2023-09-18T03:51:12;19.30;99.90
41262;DHT22;29629;52.532;13.352;2023-09-18T03:53:41;19.20;99.90
41262;DHT22;29629;52.532;13.352;2023-09-18T03:56:08;19.20;99.90
41262;DHT22;29629;52.532;13.352;2023-09-18T03:58:36;19.20;99.90
41262;DHT22;29629;52.532;13.352;2023-09-18T04:01:03;19.20;99.90
41262;DHT22;29629;52.532;13.352;2023-09-18T04:03:30;19.10;99.90
41262;DHT22;29629;52.532;13.352;2023-09-18T04:05:57;19.10;99.90
41262;DHT22;29629;52.532;13.352;2023-09-18T04:08:24;19.10;99.90
41262;DHT22;29629;52.532;13.352;2023-09-18T04:10:51;19.10;99.90
41262;DHT22;29629;52.532;13.352;2023-09-18T04:13:21;19.10;99.90
41262;DHT22;29629;52.532;13.352;2023-09-18T04:15:49;19.00;99.90
41262;DHT22;29629;52.532;13.352;2023-09-18T04:18:17;19.00;99.90
41262;DHT22;29629;52.532;13.352;2023-09-18T04:20:44;19.00;99.90
41262;DHT22;29629;52.532;13.352;2023-09-18T04:23:18;19.10;99.90
41262;DHT22;29629;52.532;13.352;2023-09-18T04:25:45;19.10;99.90
41262;DHT22;29629;52.532;13.352;2023-09-18T04:28:12;19.00;99.90
41262;DHT22;29629;52.532;13.352;2023-09-18T04:30:39;19.00;99.90
41262;DHT22;29629;52.532;13.352;2023-09-18T04:33:08;19.00;99.90
41262;DHT22;29629;52.532;13.352;2023-09-18T04:35:35;18.90;99.90
41262;DHT22;29629;52.532;13.352;2023-09-18T04:38:03;18.90;99.90
41262;DHT22;29629;52.532;13.352;2023-09-18T04:40:30;18.90;99.90
41262;DHT22;29629;52.532;13.352;2023-09-18T04:42:58;19.00;99.90
41262;DHT22;29629;52.532;13.352;2023-09-18T04:45:25;18.90;99.90
41262;DHT22;29629;52.532;13.352;2023-09-18T04:47:52;18.90;99.90
41262;DHT22;29629;52.532;13.352;2023-09-18T04:50:20;18.90;99.90
41262;DHT22;29629;52.532;13.352;2023-09-18T04:52:47;18.90;99.90
41262;DHT22;29629;52.532;13.352;2023-09-18T04:55:14;18.90;99.90
41262;DHT22;29629;52.532;13.352;2023-09-18T04:57:41;18.90;99.90
41262;DHT22;29629;52.532;13.352;2023-09-18T05:00:08;18.90;99.90
41262;DHT22;29629;52.532;13.352;2023-09-18T05:02:38;18.90;99.90
41262;DHT22;29629;52.532;13.352;2023-09-18T05:05:06;19.00;99.90
41262;DHT22;29629;52.532;13.352;2023-09-18T05:07:36;19.00;99.90
41262;DHT22;29629;52.532;13.352;2023-09-18T05:10:04;19.00;99.90
41262;DHT22;29629;52.532;13.352;2023-09-18T05:12:31;18.90;99.90
41262;DHT22;29629;52.532;13.352;2023-09-18T05:14:58;19.00;99.90
41262;DHT22;29629;52.532;13.352;2023-09-18T05:17:40;19.10;99.90
41262;DHT22;29629;52.532;13.352;2023-09-18T05:20:09;19.00;99.90
41262;DHT22;29629;52.532;13.352;2023-09-18T05:22:38;19.10;99.90
41262;DHT22;29629;52.532;13.352;2023-09-18T05:25:06;19.10;99.90
41262;DHT22;29629;52.532;13.352;2023-09-18T05:27:33;19.10;99.90
41262;DHT22;29629;52.532;13.352;2023-09-18T05:29:59;19.10;99.90
41262;DHT22;29629;52.532;13.352;2023-09-18T05:32:26;19.20;99.90
41262;DHT22;29629;52.532;13.352;2023-09-18T05:34:53;19.20;99.90
41262;DHT22;29629;52.532;13.352;2023-09-18T05:37:20;19.20;99.90
41262;DHT22;29629;52.532;13.352;2023-09-18T05:39:48;19.30;99.90
41262;DHT22;29629;52.532;13.352;2023-09-18T05:42:15;19.30;99.90
41262;DHT22;29629;52.532;13.352;2023-09-18T05:44:42;19.30;99.90
41262;DHT22;29629;52.532;13.352;2023-09-18T05:47:09;19.30;99.90
41262;DHT22;29629;52.532;13.352;2023-09-18T05:49:36;19.50;99.90
41262;DHT22;29629;52.532;13.352;2023-09-18T05:52:03;19.50;99.90
41262;DHT22;29629;52.532;13.352;2023-09-18T05:54:30;19.60;99.90
41262;DHT22;29629;52.532;13.352;2023-09-18T05:56:58;19.60;99.90
41262;DHT22;29629;52.532;13.352;2023-09-18T05:59:27;19.70;99.90
41262;DHT22;29629;52.532;13.352;2023-09-18T06:01:54;19.80;99.90
41262;DHT22;29629;52.532;13.352;2023-09-18T06:04:21;19.80;99.90
41262;DHT22;29629;52.532;13.352;2023-09-18T06:06:49;19.70;99.90
41262;DHT22;29629;52.532;13.352;2023-09-18T06:09:16;19.80;99.90
41262;DHT22;29629;52.532;13.352;2023-09-18T06:11:43;19.90;99.90
41262;DHT22;29629;52.532;13.352;2023-09-18T06:14:12;20.00;99.90
41262;DHT22;29629;52.532;13.352;2023-09-18T06:16:39;20.00;99.90
41262;DHT22;29629;52.532;13.352;2023-09-18T06:19:06;20.00;99.90
41262;DHT22;29629;52.532;13.352;2023-09-18T06:21:33;20.00;99.90
41262;DHT22;29629;52.532;13.352;2023-09-18T06:24:00;20.00;99.90
41262;DHT22;29629;52.532;13.352;2023-09-18T06:26:26;20.10;99.90
41262;DHT22;29629;52.532;13.352;2023-09-18T06:28:54;20.10;99.90
41262;DHT22;29629;52.532;13.352;2023-09-18T06:31:22;20.00;99.90
41262;DHT22;29629;52.532;13.352;2023-09-18T06:33:50;20.00;99.90
41262;DHT22;29629;52.532;13.352;2023-09-18T06:36:16;20.10;99.90
41262;DHT22;29629;52.532;13.352;2023-09-18T06:38:44;20.10;99.90
41262;DHT22;29629;52.532;13.352;2023-09-18T06:41:10;20.20;99.90
41262;DHT22;29629;52.532;13.352;2023-09-18T06:43:37;20.30;99.90
41262;DHT22;29629;52.532;13.352;2023-09-18T06:46:06;20.40;99.90
41262;DHT22;29629;52.532;13.352;2023-09-18T06:48:35;20.50;99.90
41262;DHT22;29629;52.532;13.352;2023-09-18T06:51:02;20.70;99.90
41262;DHT22;29629;52.532;13.352;2023-09-18T06:53:29;20.80;99.90
41262;DHT22;29629;52.532;13.352;2023-09-18T06:55:56;20.90;99.90
41262;DHT22;29629;52.532;13.352;2023-09-18T06:58:22;20.90;99.90
41262;DHT22;29629;52.532;13.352;2023-09-18T07:00:49;20.90;99.90
41262;DHT22;29629;52.532;13.352;2023-09-18T07:03:16;21.00;99.90
41262;DHT22;29629;52.532;13.352;2023-09-18T07:05:45;21.10;99.90
41262;DHT22;29629;52.532;13.352;2023-09-18T07:08:12;21.20;99.90
41262;DHT22;29629;52.532;13.352;2023-09-18T07:10:41;21.40;99.90
41262;DHT22;29629;52.532;13.352;2023-09-18T07:13:08;21.50;99.90
41262;DHT22;29629;52.532;13.352;2023-09-18T07:15:35;21.50;99.90
41262;DHT22;29629;52.532;13.352;2023-09-18T07:18:02;21.50;99.90
41262;DHT22;29629;52.532;13.352;2023-09-18T07:20:29;21.70;99.90
41262;DHT22;29629;52.532;13.352;2023-09-18T07:22:59;21.80;99.90
41262;DHT22;29629;52.532;13.352;2023-09-18T07:25:26;22.00;99.90
41262;DHT22;29629;52.532;13.352;2023-09-18T07:27:52;22.20;99.90
41262;DHT22;29629;52.532;13.352;2023-09-18T07:30:19;22.10;99.90
41262;DHT22;29629;52.532;13.352;2023-09-18T07:32:47;22.20;99.90
41262;DHT22;29629;52.532;13.352;2023-09-18T07:35:14;22.30;99.90
41262;DHT22;29629;52.532;13.352;2023-09-18T07:37:41;22.50;99.90
41262;DHT22;29629;52.532;13.352;2023-09-18T07:40:11;22.60;99.90
41262;DHT22;29629;52.532;13.352;2023-09-18T07:42:38;22.90;99.90
41262;DHT22;29629;52.532;13.352;2023-09-18T07:45:06;23.00;99.90
41262;DHT22;29629;52.532;13.352;2023-09-18T07:47:33;23.00;99.90
41262;DHT22;29629;52.532;13.352;2023-09-18T07:50:00;23.20;99.90
41262;DHT22;29629;52.532;13.352;2023-09-18T07:52:27;23.30;99.90
41262;DHT22;29629;52.532;13.352;2023-09-18T07:54:54;23.30;99.90
41262;DHT22;29629;52.532;13.352;2023-09-18T07:57:22;23.50;99.90
41262;DHT22;29629;52.532;13.352;2023-09-18T07:59:49;23.60;99.90
41262;DHT22;29629;52.532;13.352;2023-09-18T08:02:16;23.50;99.90
41262;DHT22;29629;52.532;13.352;2023-09-18T08:04:44;23.70;99.90
41262;DHT22;29629;52.532;13.352;2023-09-18T08:07:11;23.80;99.90
41262;DHT22;29629;52.532;13.352;2023-09-18T08:09:38;23.90;99.90
41262;DHT22;29629;52.532;13.352;2023-09-18T08:12:06;24.20;99.90
41262;DHT22;29629;52.532;13.352;2023-09-18T08:14:35;24.20;99.90
41262;DHT22;29629;52.532;13.352;2023-09-18T08:17:03;24.20;99.90
41262;DHT22;29629;52.532;13.352;2023-09-18T08:19:31;24.30;99.90
41262;DHT22;29629;52.532;13.352;2023-09-18T08:21:58;24.60;99.90
41262;DHT22;29629;52.532;13.352;2023-09-18T08:24:26;24.70;99.90
41262;DHT22;29629;52.532;13.352;2023-09-18T08:26:53;25.00;99.90
41262;DHT22;29629;52.532;13.352;2023-09-18T08:29:21;25.20;99.90
41262;DHT22;29629;52.532;13.352;2023-09-18T08:31:50;25.40;99.90
41262;DHT22;29629;52.532;13.352;2023-09-18T08:34:17;25.50;99.90
41262;DHT22;29629;52.532;13.352;2023-09-18T08:36:43;25.60;99.90
41262;DHT22;29629;52.532;13.352;2023-09-18T08:39:10;25.90;99.90
41262;DHT22;29629;52.532;13.352;2023-09-18T08:41:42;25.90;99.90
41262;DHT22;29629;52.532;13.352;2023-09-18T08:44:09;26.00;99.90
41262;DHT22;29629;52.532;13.352;2023-09-18T08:46:37;26.20;99.90
41262;DHT22;29629;52.532;13.352;2023-09-18T08:49:06;26.30;99.90
41262;DHT22;29629;52.532;13.352;2023-09-18T08:51:34;26.10;99.90
41262;DHT22;29629;52.532;13.352;2023-09-18T08:54:03;26.70;99.90
41262;DHT22;29629;52.532;13.352;2023-09-18T08:56:31;27.20;99.90
41262;DHT22;29629;52.532;13.352;2023-09-18T08:58:59;27.80;99.90
41262;DHT22;29629;52.532;13.352;2023-09-18T09:01:26;27.90;99.90
41262;DHT22;29629;52.532;13.352;2023-09-18T09:03:53;28.10;99.90
41262;DHT22;29629;52.532;13.352;2023-09-18T09:06:22;28.40;99.90
41262;DHT22;29629;52.532;13.352;2023-09-18T09:08:49;28.90;99.90
41262;DHT22;29629;52.532;13.352;2023-09-18T09:11:17;29.80;99.90
41262;DHT22;29629;52.532;13.352;2023-09-18T09:13:45;30.60;99.90
41262;DHT22;29629;52.532;13.352;2023-09-18T09:16:13;30.90;99.90
41262;DHT22;29629;52.532;13.352;2023-09-18T09:18:48;30.80;99.90
41262;DHT22;29629;52.532;13.352;2023-09-18T09:21:15;30.80;99.90
41262;DHT22;29629;52.532;13.352;2023-09-18T09:23:48;31.60;99.90
41262;DHT22;29629;52.532;13.352;2023-09-18T09:26:18;31.20;99.90
41262;DHT22;29629;52.532;13.352;2023-09-18T09:28:46;30.20;99.90
41262;DHT22;29629;52.532;13.352;2023-09-18T09:31:23;30.20;99.90
41262;DHT22;29629;52.532;13.352;2023-09-18T09:33:52;29.70;99.90
41262;DHT22;29629;52.532;13.352;2023-09-18T09:36:20;29.60;99.90
41262;DHT22;29629;52.532;13.352;2023-09-18T09:38:49;30.50;99.90
41262;DHT22;29629;52.532;13.352;2023-09-18T09:41:21;30.20;99.90
41262;DHT22;29629;52.532;13.352;2023-09-18T09:43:48;29.80;99.90
41262;DHT22;29629;52.532;13.352;2023-09-18T09:46:16;29.40;99.90
41262;DHT22;29629;52.532;13.352;2023-09-18T09:48:58;28.80;99.90
41262;DHT22;29629;52.532;13.352;2023-09-18T09:51:26;29.00;99.90
41262;DHT22;29629;52.532;13.352;2023-09-18T09:53:55;29.00;99.90
41262;DHT22;29629;52.532;13.352;2023-09-18T09:56:43;28.30;99.90
41262;DHT22;29629;52.532;13.352;2023-09-18T09:59:11;27.80;99.90
41262;DHT22;29629;52.532;13.352;2023-09-18T10:01:38;27.90;99.90
41262;DHT22;29629;52.532;13.352;2023-09-18T10:04:09;28.00;99.90
41262;DHT22;29629;52.532;13.352;2023-09-18T10:06:37;27.60;99.90
41262;DHT22;29629;52.532;13.352;2023-09-18T10:09:07;27.50;99.90
41262;DHT22;29629;52.532;13.352;2023-09-18T10:11:41;27.10;99.90
41262;DHT22;29629;52.532;13.352;2023-09-18T10:14:12;27.00;99.90
41262;DHT22;29629;52.532;13.352;2023-09-18T10:16:45;26.90;99.90
41262;DHT22;29629;52.532;13.352;2023-09-18T10:19:20;27.00;99.90
41262;DHT22;29629;52.532;13.352;2023-09-18T10:21:56;27.00;99.90
41262;DHT22;29629;52.532;13.352;2023-09-18T10:24:28;27.00;99.90
41262;DHT22;29629;52.532;13.352;2023-09-18T10:27:00;27.00;99.90
41262;DHT22;29629;52.532;13.352;2023-09-18T10:29:32;27.00;99.90
41262;DHT22;29629;52.532;13.352;2023-09-18T10:32:03;27.40;99.90
41262;DHT22;29629;52.532;13.352;2023-09-18T10:34:30;27.60;99.90
41262;DHT22;29629;52.532;13.352;2023-09-18T10:37:00;27.70;99.90
41262;DHT22;29629;52.532;13.352;2023-09-18T10:39:31;27.80;99.90
41262;DHT22;29629;52.532;13.352;2023-09-18T10:42:01;27.60;99.90
41262;DHT22;29629;52.532;13.352;2023-09-18T10:44:30;27.60;99.90
41262;DHT22;29629;52.532;13.352;2023-09-18T10:46:59;27.50;99.90
41262;DHT22;29629;52.532;13.352;2023-09-18T10:49:26;27.20;99.90
41262;DHT22;29629;52.532;13.352;2023-09-18T10:51:55;27.10;99.90
41262;DHT22;29629;52.532;13.352;2023-09-18T10:54:24;27.00;99.90
41262;DHT22;29629;52.532;13.352;2023-09-18T10:56:53;26.90;99.90
41262;DHT22;29629;52.532;13.352;2023-09-18T10:59:20;26.80;99.90
41262;DHT22;29629;52.532;13.352;2023-09-18T11:01:48;26.70;99.90
41262;DHT22;29629;52.532;13.352;2023-09-18T11:04:18;26.60;99.90
41262;DHT22;29629;52.532;13.352;2023-09-18T11:07:04;26.50;99.90
41262;DHT22;29629;52.532;13.352;2023-09-18T11:09:32;26.50;99.90
41262;DHT22;29629;52.532;13.352;2023-09-18T11:12:04;26.40;99.90
41262;DHT22;29629;52.532;13.352;2023-09-18T11:14:45;26.40;99.90
41262;DHT22;29629;52.532;13.352;2023-09-18T11:17:31;26.40;99.90
41262;DHT22;29629;52.532;13.352;2023-09-18T11:20:07;26.30;99.90
41262;DHT22;29629;52.532;13.352;2023-09-18T11:22:39;26.30;99.90
41262;DHT22;29629;52.532;13.352;2023-09-18T11:25:28;26.30;99.90
41262;DHT22;29629;52.532;13.352;2023-09-18T11:27:58;26.30;99.90
41262;DHT22;29629;52.532;13.352;2023-09-18T11:30:25;26.30;99.90
41262;DHT22;29629;52.532;13.352;2023-09-18T11:32:52;26.30;99.90
41262;DHT22;29629;52.532;13.352;2023-09-18T11:35:21;26.20;99.90
41262;DHT22;29629;52.532;13.352;2023-09-18T11:38:03;26.30;99.90
41262;DHT22;29629;52.532;13.352;2023-09-18T11:40:33;26.20;99.90
41262;DHT22;29629;52.532;13.352;2023-09-18T11:43:25;26.20;99.90
41262;DHT22;29629;52.532;13.352;2023-09-18T11:45:56;26.00;99.90
41262;DHT22;29629;52.532;13.352;2023-09-18T11:48:23;26.00;99.90
41262;DHT22;29629;52.532;13.352;2023-09-18T11:50:54;25.90;99.90
41262;DHT22;29629;52.532;13.352;2023-09-18T11:53:23;25.90;99.90
41262;DHT22;29629;52.532;13.352;2023-09-18T11:55:51;26.00;99.90
41262;DHT22;29629;52.532;13.352;2023-09-18T11:58:18;25.80;99.90
41262;DHT22;29629;52.532;13.352;2023-09-18T12:00:50;25.90;99.90
41262;DHT22;29629;52.532;13.352;2023-09-18T12:03:19;25.80;99.90
41262;DHT22;29629;52.532;13.352;2023-09-18T12:05:56;25.90;99.90
41262;DHT22;29629;52.532;13.352;2023-09-18T12:08:23;26.00;99.90
41262;DHT22;29629;52.532;13.352;2023-09-18T12:10:52;26.00;99.90
41262;DHT22;29629;52.532;13.352;2023-09-18T12:13:19;26.20;99.90
41262;DHT22;29629;52.532;13.352;2023-09-18T12:15:47;26.30;99.90
41262;DHT22;29629;52.532;13.352;2023-09-18T12:18:16;26.40;99.90
41262;DHT22;29629;52.532;13.352;2023-09-18T12:20:47;26.50;99.90
41262;DHT22;29629;52.532;13.352;2023-09-18T12:23:14;26.60;99.90
41262;DHT22;29629;52.532;13.352;2023-09-18T12:25:43;26.70;99.90
41262;DHT22;29629;52.532;13.352;2023-09-18T12:28:13;26.80;99.90
41262;DHT22;29629;52.532;13.352;2023-09-18T12:30:41;26.40;99.90
41262;DHT22;29629;52.532;13.352;2023-09-18T12:33:08;26.40;99.90
41262;DHT22;29629;52.532;13.352;2023-09-18T12:35:36;26.40;99.90
41262;DHT22;29629;52.532;13.352;2023-09-18T12:38:14;26.30;99.90
41262;DHT22;29629;52.532;13.352;2023-09-18T12:40:41;26.10;99.90
41262;DHT22;29629;52.532;13.352;2023-09-18T12:43:10;26.10;99.90
41262;DHT22;29629;52.532;13.352;2023-09-18T12:45:38;25.80;99.90
41262;DHT22;29629;52.532;13.352;2023-09-18T12:48:06;25.70;99.90
41262;DHT22;29629;52.532;13.352;2023-09-18T12:50:33;25.70;99.90
41262;DHT22;29629;52.532;13.352;2023-09-18T12:53:13;25.60;99.90
41262;DHT22;29629;52.532;13.352;2023-09-18T12:55:41;25.70;99.90
41262;DHT22;29629;52.532;13.352;2023-09-18T12:58:10;25.60;99.90
41262;DHT22;29629;52.532;13.352;2023-09-18T13:00:44;25.60;99.90
41262;DHT22;29629;52.532;13.352;2023-09-18T13:03:13;25.50;99.90
41262;DHT22;29629;52.532;13.352;2023-09-18T13:05:40;25.40;99.90
41262;DHT22;29629;52.532;13.352;2023-09-18T13:08:07;25.40;99.90
41262;DHT22;29629;52.532;13.352;2023-09-18T13:10:43;25.30;99.90
41262;DHT22;29629;52.532;13.352;2023-09-18T13:13:16;25.30;99.90
41262;DHT22;29629;52.532;13.352;2023-09-18T13:15:43;25.30;99.90
41262;DHT22;29629;52.532;13.352;2023-09-18T13:18:12;25.20;99.90
41262;DHT22;29629;52.532;13.352;2023-09-18T13:20:39;25.20;99.90
41262;DHT22;29629;52.532;13.352;2023-09-18T13:23:07;25.20;99.90
41262;DHT22;29629;52.532;13.352;2023-09-18T13:25:35;25.20;99.90
41262;DHT22;29629;52.532;13.352;2023-09-18T13:28:07;25.20;99.90
41262;DHT22;29629;52.532;13.352;2023-09-18T13:30:36;25.20;99.90
41262;DHT22;29629;52.532;13.352;2023-09-18T13:33:05;25.20;99.90
41262;DHT22;29629;52.532;13.352;2023-09-18T13:35:32;25.10;99.90
41262;DHT22;29629;52.532;13.352;2023-09-18T13:38:00;25.00;99.90
41262;DHT22;29629;52.532;13.352;2023-09-18T13:40:28;24.90;99.90
41262;DHT22;29629;52.532;13.352;2023-09-18T13:42:55;24.70;99.90
41262;DHT22;29629;52.532;13.352;2023-09-18T13:45:23;24.40;99.90
41262;DHT22;29629;52.532;13.352;2023-09-18T13:47:50;24.30;99.90
41262;DHT22;29629;52.532;13.352;2023-09-18T13:50:17;24.10;99.90
41262;DHT22;29629;52.532;13.352;2023-09-18T13:52:44;23.80;99.90
41262;DHT22;29629;52.532;13.352;2023-09-18T13:55:11;23.60;99.90
41262;DHT22;29629;52.532;13.352;2023-09-18T13:57:38;23.50;99.90
41262;DHT22;29629;52.532;13.352;2023-09-18T14:00:06;23.70;99.90
41262;DHT22;29629;52.532;13.352;2023-09-18T14:02:36;23.70;99.90
41262;DHT22;29629;52.532;13.352;2023-09-18T14:05:04;23.70;99.90
41262;DHT22;29629;52.532;13.352;2023-09-18T14:07:31;23.80;99.90
41262;DHT22;29629;52.532;13.352;2023-09-18T14:09:58;23.80;99.90
41262;DHT22;29629;52.532;13.352;2023-09-18T14:12:29;23.90;99.90
41262;DHT22;29629;52.532;13.352;2023-09-18T14:14:57;23.50;99.90
41262;DHT22;29629;52.532;13.352;2023-09-18T14:17:25;23.60;99.90
41262;DHT22;29629;52.532;13.352;2023-09-18T14:19:53;23.90;99.90
41262;DHT22;29629;52.532;13.352;2023-09-18T14:22:20;23.90;99.90
41262;DHT22;29629;52.532;13.352;2023-09-18T14:24:47;24.00;99.90
41262;DHT22;29629;52.532;13.352;2023-09-18T14:27:14;23.80;99.90
41262;DHT22;29629;52.532;13.352;2023-09-18T14:29:41;23.80;99.90
41262;DHT22;29629;52.532;13.352;2023-09-18T14:32:08;23.80;99.90
41262;DHT22;29629;52.532;13.352;2023-09-18T14:34:35;23.80;99.90
41262;DHT22;29629;52.532;13.352;2023-09-18T14:37:03;23.70;99.90
41262;DHT22;29629;52.532;13.352;2023-09-18T14:39:31;23.80;99.90
41262;DHT22;29629;52.532;13.352;2023-09-18T14:41:58;23.70;99.90
41262;DHT22;29629;52.532;13.352;2023-09-18T14:44:26;23.70;99.90
41262;DHT22;29629;52.532;13.352;2023-09-18T14:46:54;23.70;99.90
41262;DHT22;29629;52.532;13.352;2023-09-18T14:49:21;23.70;99.90
41262;DHT22;29629;52.532;13.352;2023-09-18T14:51:48;23.70;99.90
41262;DHT22;29629;52.532;13.352;2023-09-18T14:54:19;23.70;99.90
41262;DHT22;29629;52.532;13.352;2023-09-18T14:56:47;23.70;99.90
41262;DHT22;29629;52.532;13.352;2023-09-18T14:59:13;23.70;99.90
41262;DHT22;29629;52.532;13.352;2023-09-18T15:01:40;23.80;99.90
41262;DHT22;29629;52.532;13.352;2023-09-18T15:04:09;23.80;99.90
41262;DHT22;29629;52.532;13.352;2023-09-18T15:06:36;23.80;99.90
41262;DHT22;29629;52.532;13.352;2023-09-18T15:09:03;23.90;99.90
41262;DHT22;29629;52.532;13.352;2023-09-18T15:11:31;23.90;99.90
41262;DHT22;29629;52.532;13.352;2023-09-18T15:14:00;23.90;99.90
41262;DHT22;29629;52.532;13.352;2023-09-18T15:16:27;23.90;99.90
41262;DHT22;29629;52.532;13.352;2023-09-18T15:18:55;24.00;99.90
41262;DHT22;29629;52.532;13.352;2023-09-18T15:21:24;23.90;99.90
41262;DHT22;29629;52.532;13.352;2023-09-18T15:23:51;23.90;99.90